createdAt,value
2023-05-12T00:02:26.460Z,75670.50
2023-05-12T00:04:54.879Z,75670.50
2023-05-12T00:07:22.702Z,75666.41
2023-05-12T00:09:51.832Z,75670.50
2023-05-12T00:12:19.942Z,75666.41
2023-05-12T00:14:47.771Z,75674.56
2023-05-12T00:17:15.582Z,75678.63
2023-05-12T00:19:44.125Z,75682.72
2023-05-12T00:22:12.404Z,75684.75
2023-05-12T00:24:40.816Z,75682.72
2023-05-12T00:27:09.912Z,75682.72
2023-05-12T00:29:37.777Z,75682.72
2023-05-12T00:32:07.002Z,75684.75
2023-05-12T00:34:34.751Z,75684.75
2023-05-12T00:37:02.494Z,75688.84
2023-05-12T00:39:30.294Z,75684.75
2023-05-12T00:41:59.466Z,75686.78
2023-05-12T00:44:28.549Z,75692.91
2023-05-12T00:46:56.963Z,75688.84
2023-05-12T00:49:27.261Z,75686.78
2023-05-12T00:51:55.637Z,75694.94
2023-05-12T00:54:23.773Z,75688.84
2023-05-12T00:56:51.770Z,75692.91
2023-05-12T00:59:19.534Z,75690.88
2023-05-12T01:01:50.510Z,75701.06
2023-05-12T01:04:18.322Z,75688.84
2023-05-12T01:06:50.745Z,75688.84
2023-05-12T01:09:18.965Z,75692.91
2023-05-12T01:11:46.694Z,75686.78
2023-05-12T01:14:14.418Z,75692.91
2023-05-12T01:16:50.767Z,75690.88
2023-05-12T01:19:34.035Z,75688.84
2023-05-12T01:22:02.049Z,75690.88
2023-05-12T01:24:33.388Z,75690.88
2023-05-12T01:27:03.640Z,75699.03
2023-05-12T01:29:32.855Z,75697.00
2023-05-12T01:32:00.879Z,75699.03
2023-05-12T01:34:28.608Z,75694.94
2023-05-12T01:36:56.416Z,75692.91
2023-05-12T01:39:24.159Z,75692.91
2023-05-12T01:41:51.895Z,75694.94
2023-05-12T01:44:21.628Z,75699.03
2023-05-12T01:46:49.685Z,75694.94
2023-05-12T01:49:17.564Z,75697.00
2023-05-12T01:51:45.343Z,75694.94
2023-05-12T01:54:13.101Z,75694.94
2023-05-12T01:56:41.091Z,75694.94
2023-05-12T01:59:09.060Z,75699.03
2023-05-12T02:01:38.219Z,75701.06
2023-05-12T02:04:08.041Z,75697.00
2023-05-12T02:06:35.962Z,75701.06
2023-05-12T02:09:03.786Z,75699.03
2023-05-12T02:11:31.730Z,75703.09
2023-05-12T02:13:59.641Z,75703.09
2023-05-12T02:16:27.399Z,75705.16
2023-05-12T02:18:56.590Z,75707.19
2023-05-12T02:21:24.515Z,75701.06
2023-05-12T02:23:52.282Z,75703.09
2023-05-12T02:26:21.227Z,75703.09
2023-05-12T02:28:49.112Z,75703.09
2023-05-12T02:31:16.847Z,75703.09
2023-05-12T02:33:44.568Z,75699.03
2023-05-12T02:36:13.715Z,75697.00
2023-05-12T02:38:41.443Z,75694.94
2023-05-12T02:41:09.269Z,75694.94
2023-05-12T02:43:37.142Z,75697.00
2023-05-12T02:46:05.022Z,75694.94
2023-05-12T02:48:32.848Z,75697.00
2023-05-12T02:51:00.714Z,75697.00
2023-05-12T02:53:29.997Z,75692.91
2023-05-12T02:55:57.791Z,75694.94
2023-05-12T02:58:25.669Z,75694.94
2023-05-12T03:01:03.072Z,75694.94
2023-05-12T03:03:34.984Z,75692.91
2023-05-12T03:06:04.623Z,75699.03
2023-05-12T03:08:33.929Z,75699.03
2023-05-12T03:11:01.975Z,75703.09
2023-05-12T03:13:29.738Z,75694.94
2023-05-12T03:16:01.220Z,75694.94
2023-05-12T03:18:29.582Z,75688.84
2023-05-12T03:20:57.385Z,75686.78
2023-05-12T03:23:25.143Z,75686.78
2023-05-12T03:25:54.318Z,75686.78
2023-05-12T03:28:23.037Z,75690.88
2023-05-12T03:30:50.772Z,75692.91
2023-05-12T03:33:18.527Z,75686.78
2023-05-12T03:35:46.340Z,75686.78
2023-05-12T03:38:14.072Z,75686.78
2023-05-12T03:40:41.837Z,75684.75
2023-05-12T03:43:10.902Z,75688.84
2023-05-12T03:45:38.859Z,75680.69
2023-05-12T03:48:07.233Z,75678.63
2023-05-12T03:50:34.997Z,75690.88
2023-05-12T03:53:02.746Z,75688.84
2023-05-12T03:55:30.549Z,75682.72
2023-05-12T03:57:58.266Z,75678.63
2023-05-12T04:00:27.599Z,75678.63
2023-05-12T04:02:55.408Z,75682.72
2023-05-12T04:05:23.322Z,75682.72
2023-05-12T04:07:51.306Z,75680.69
2023-05-12T04:10:20.429Z,75678.63
2023-05-12T04:12:48.274Z,75674.56
2023-05-12T04:15:16.648Z,75674.56
2023-05-12T04:17:45.803Z,75676.59
2023-05-12T04:20:13.863Z,75674.56
2023-05-12T04:22:41.626Z,75680.69
2023-05-12T04:25:10.605Z,75672.53
2023-05-12T04:27:38.362Z,75672.53
2023-05-12T04:30:07.526Z,75674.56
2023-05-12T04:32:35.479Z,75672.53
2023-05-12T04:35:05.267Z,75672.53
2023-05-12T04:37:33.032Z,75670.50
2023-05-12T04:40:00.806Z,75666.41
2023-05-12T04:42:28.531Z,75674.56
2023-05-12T04:44:56.654Z,75666.41
2023-05-12T04:47:24.603Z,75666.41
2023-05-12T04:49:52.350Z,75666.41
2023-05-12T04:52:24.007Z,75666.41
2023-05-12T04:54:53.456Z,75668.44
2023-05-12T04:57:21.326Z,75666.41
2023-05-12T04:59:49.078Z,75670.50
2023-05-12T05:02:17.119Z,75670.50
2023-05-12T05:04:44.839Z,75674.56
2023-05-12T05:07:12.582Z,75674.56
2023-05-12T05:09:41.722Z,75682.72
2023-05-12T05:12:09.959Z,75674.56
2023-05-12T05:14:37.703Z,75682.72
2023-05-12T05:17:07.062Z,75676.59
2023-05-12T05:19:50.926Z,75678.63
2023-05-12T05:22:22.878Z,75690.88
2023-05-12T05:24:52.096Z,75688.84
2023-05-12T05:27:20.017Z,75680.69
2023-05-12T05:29:47.892Z,75682.72
2023-05-12T05:32:15.851Z,75686.78
2023-05-12T05:34:43.617Z,75686.78
2023-05-12T05:37:11.509Z,75692.91
2023-05-12T05:39:39.356Z,75684.75
2023-05-12T05:42:08.615Z,75692.91
2023-05-12T05:44:36.543Z,75686.78
2023-05-12T05:47:04.393Z,75694.94
2023-05-12T05:49:32.185Z,75684.75
2023-05-12T05:51:59.937Z,75682.72
2023-05-12T05:54:27.932Z,75682.72
2023-05-12T05:56:56.045Z,75682.72
2023-05-12T05:59:25.484Z,75680.69
2023-05-12T06:01:53.250Z,75688.84
2023-05-12T06:04:21.165Z,75682.72
2023-05-12T06:06:49.002Z,75682.72
2023-05-12T06:09:17.080Z,75686.78
2023-05-12T06:11:44.831Z,75690.88
2023-05-12T06:14:12.645Z,75694.94
2023-05-12T06:16:41.754Z,75692.91
2023-05-12T06:19:09.781Z,75694.94
2023-05-12T06:21:37.634Z,75694.94
2023-05-12T06:24:06.528Z,75682.72
2023-05-12T06:26:34.370Z,75672.53
2023-05-12T06:29:02.155Z,75674.56
2023-05-12T06:31:30.055Z,75674.56
2023-05-12T06:33:59.197Z,75662.34
2023-05-12T06:36:27.035Z,75680.69
2023-05-12T06:38:54.923Z,75684.75
2023-05-12T06:41:24.952Z,75690.88
2023-05-12T06:43:53.175Z,75682.72
2023-05-12T06:46:21.018Z,75692.91
2023-05-12T06:48:48.860Z,75688.84
2023-05-12T06:51:18.062Z,75690.88
2023-05-12T06:53:45.788Z,75692.91
2023-05-12T06:56:16.933Z,75690.88
2023-05-12T06:58:44.827Z,75690.88
2023-05-12T07:01:12.699Z,75692.91
2023-05-12T07:03:40.551Z,75686.78
2023-05-12T07:06:08.647Z,75686.78
2023-05-12T07:08:37.881Z,75672.53
2023-05-12T07:11:05.665Z,75674.56
2023-05-12T07:13:33.447Z,75684.75
2023-05-12T07:16:01.453Z,75697.00
2023-05-12T07:18:29.306Z,75694.94
2023-05-12T07:20:57.401Z,75684.75
2023-05-12T07:23:25.149Z,75674.56
2023-05-12T07:25:54.369Z,75678.63
2023-05-12T07:28:22.168Z,75666.41
2023-05-12T07:30:50.056Z,75670.50
2023-05-12T07:33:17.817Z,75676.59
2023-05-12T07:35:46.701Z,75682.72
2023-05-12T07:38:14.462Z,75682.72
2023-05-12T07:40:43.122Z,75666.41
2023-05-12T07:43:12.335Z,75674.56
2023-05-12T07:45:40.096Z,75666.41
2023-05-12T07:48:08.105Z,75668.44
2023-05-12T07:50:36.052Z,75648.06
2023-05-12T07:53:04.298Z,75646.03
2023-05-12T07:55:33.365Z,75654.19
2023-05-12T07:58:01.388Z,75654.19
2023-05-12T08:00:30.718Z,75646.03
2023-05-12T08:02:58.742Z,75662.34
2023-05-12T08:05:26.685Z,75662.34
2023-05-12T08:07:54.516Z,75664.38
2023-05-12T08:10:26.666Z,75644.00
2023-05-12T08:12:54.520Z,75639.91
2023-05-12T08:15:22.673Z,75629.72
2023-05-12T08:17:52.066Z,75615.44
2023-05-12T08:20:20.321Z,75625.63
2023-05-12T08:22:48.319Z,75625.63
2023-05-12T08:25:16.152Z,75613.41
2023-05-12T08:27:43.921Z,75607.28
2023-05-12T08:30:12.680Z,75605.25
2023-05-12T08:32:40.526Z,75617.50
2023-05-12T08:35:09.881Z,75615.44
2023-05-12T08:37:37.660Z,75617.50
2023-05-12T08:40:15.626Z,75613.41
2023-05-12T08:42:45.224Z,75613.41
2023-05-12T08:45:13.246Z,75597.09
2023-05-12T08:47:42.763Z,75613.41
2023-05-12T08:50:13.762Z,75580.78
2023-05-12T08:52:41.874Z,75593.03
2023-05-12T08:55:10.999Z,75584.88
2023-05-12T08:57:39.797Z,75595.06
2023-05-12T09:00:09.983Z,75593.03
2023-05-12T09:02:52.230Z,75580.78
2023-05-12T09:05:23.593Z,75586.91
2023-05-12T09:07:54.820Z,75588.94
2023-05-12T09:10:34.470Z,75601.19
2023-05-12T09:13:05.592Z,75593.03
2023-05-12T09:15:37.630Z,75570.59
2023-05-12T09:18:05.870Z,75568.56
2023-05-12T09:20:35.244Z,75586.91
2023-05-12T09:23:14.460Z,75580.78
2023-05-12T09:25:42.337Z,75584.88
2023-05-12T09:28:10.739Z,75619.53
2023-05-12T09:30:42.172Z,75617.50
2023-05-12T09:33:11.185Z,75619.53
2023-05-12T09:35:41.478Z,75601.19
2023-05-12T09:38:11.983Z,75615.44
2023-05-12T09:40:44.606Z,75621.56
2023-05-12T09:43:17.476Z,75633.78
2023-05-12T09:45:47.521Z,75625.63
2023-05-12T09:48:15.444Z,75621.56
2023-05-12T09:50:50.464Z,75633.78
2023-05-12T09:53:19.633Z,75605.25
2023-05-12T09:55:49.121Z,75597.09
2023-05-12T09:58:18.753Z,75609.34
2023-05-12T10:03:21.981Z,75609.34
2023-05-12T10:05:58.519Z,75601.19
2023-05-12T10:08:31.015Z,75609.34
2023-05-12T10:11:01.216Z,75599.13
2023-05-12T10:13:29.540Z,75605.25
2023-05-12T10:15:58.687Z,75601.19
2023-05-12T10:18:26.927Z,75607.28
2023-05-12T10:20:57.621Z,75605.25
2023-05-12T10:23:26.788Z,75601.19
2023-05-12T10:26:02.968Z,75609.34
2023-05-12T10:28:32.325Z,75613.41
2023-05-12T10:31:00.874Z,75619.53
2023-05-12T10:33:28.734Z,75633.78
2023-05-12T10:35:57.898Z,75631.75
2023-05-12T10:38:25.776Z,75633.78
2023-05-12T10:40:54.709Z,75631.75
2023-05-12T10:43:24.193Z,75646.03
2023-05-12T10:46:08.787Z,75641.94
2023-05-12T10:48:37.372Z,75654.19
2023-05-12T10:51:11.212Z,75633.78
2023-05-12T10:53:49.069Z,75631.75
2023-05-12T10:56:23.913Z,75637.88
2023-05-12T10:59:09.483Z,75637.88
2023-05-12T11:01:39.257Z,75625.63
2023-05-12T11:04:11.788Z,75617.50
2023-05-12T11:06:43.212Z,75605.25
2023-05-12T11:09:13.259Z,75609.34
2023-05-12T11:11:41.485Z,75591.00
2023-05-12T11:14:10.230Z,75605.25
2023-05-12T11:16:43.352Z,75617.50
2023-05-12T11:19:11.808Z,75629.72
2023-05-12T11:21:40.500Z,75605.25
2023-05-12T11:24:14.452Z,75601.19
2023-05-12T11:26:42.277Z,75603.22
2023-05-12T11:29:10.161Z,75597.09
2023-05-12T11:31:38.050Z,75578.75
2023-05-12T11:34:12.471Z,75560.41
2023-05-12T11:36:43.245Z,75564.47
2023-05-12T11:39:17.225Z,75552.25
2023-05-12T11:41:45.948Z,75568.56
2023-05-12T11:44:17.651Z,75570.59
2023-05-12T11:46:59.016Z,75572.63
2023-05-12T11:49:27.468Z,75593.03
2023-05-12T11:51:56.601Z,75609.34
2023-05-12T11:54:26.056Z,75621.56
2023-05-12T11:56:55.678Z,75621.56
2023-05-12T11:59:30.790Z,75609.34
2023-05-12T12:01:59.212Z,75633.78
2023-05-12T12:04:40.135Z,75646.03
2023-05-12T12:07:09.629Z,75646.03
2023-05-12T12:09:41.576Z,75658.25
2023-05-12T12:12:11.102Z,75658.25
2023-05-12T12:14:41.408Z,75680.69
2023-05-12T12:17:09.285Z,75666.41
2023-05-12T12:19:37.086Z,75670.50
2023-05-12T12:22:05.103Z,75670.50
2023-05-12T12:24:33.068Z,75682.72
2023-05-12T12:27:02.158Z,75680.69
2023-05-12T12:29:30.205Z,75666.41
2023-05-12T12:31:58.007Z,75666.41
2023-05-12T12:34:26.009Z,75670.50
2023-05-12T12:36:53.871Z,75666.41
2023-05-12T12:39:23.125Z,75688.84
2023-05-12T12:41:50.980Z,75703.09
2023-05-12T12:44:20.050Z,75690.88
2023-05-12T12:46:47.921Z,75705.16
2023-05-12T12:49:15.746Z,75721.44
2023-05-12T12:51:46.698Z,75731.66
2023-05-12T12:54:15.390Z,75729.59
2023-05-12T12:56:44.157Z,75729.59
2023-05-12T12:59:12.023Z,75733.69
2023-05-12T13:01:41.204Z,75731.66
2023-05-12T13:04:08.955Z,75739.81
2023-05-12T13:06:36.871Z,75733.69
2023-05-12T13:09:05.387Z,75721.44
2023-05-12T13:11:33.389Z,75731.66
2023-05-12T13:14:02.319Z,75735.72
2023-05-12T13:16:31.085Z,75723.50
2023-05-12T13:19:00.365Z,75725.53
2023-05-12T13:21:28.743Z,75725.53
2023-05-12T13:23:56.527Z,75723.50
2023-05-12T13:26:24.580Z,75739.81
2023-05-12T13:28:52.331Z,75727.56
2023-05-12T13:31:20.218Z,75739.81
2023-05-12T13:33:48.182Z,75735.72
2023-05-12T13:36:17.631Z,75731.66
2023-05-12T13:38:46.713Z,75715.34
2023-05-12T13:41:14.503Z,75719.41
2023-05-12T13:43:42.266Z,75713.28
2023-05-12T13:46:10.427Z,75713.28
2023-05-12T13:48:38.243Z,75719.41
2023-05-12T13:51:06.653Z,75711.25
2023-05-12T13:53:38.481Z,75703.09
2023-05-12T13:56:07.286Z,75686.78
2023-05-12T13:58:35.236Z,75688.84
2023-05-12T14:01:03.186Z,75674.56
2023-05-12T14:03:30.921Z,75688.84
2023-05-12T14:05:58.692Z,75717.38
2023-05-12T14:08:26.451Z,75715.34
2023-05-12T14:10:55.770Z,75733.69
2023-05-12T14:13:24.242Z,75731.66
2023-05-12T14:15:52.251Z,75733.69
2023-05-12T14:18:20.854Z,75747.94
2023-05-12T14:20:48.970Z,75754.06
2023-05-12T14:23:16.709Z,75752.03
2023-05-12T14:25:44.434Z,75760.19
2023-05-12T14:28:13.753Z,75762.22
2023-05-12T14:30:41.847Z,75756.09
2023-05-12T14:33:09.820Z,75764.25
2023-05-12T14:35:37.707Z,75768.34
2023-05-12T14:38:05.455Z,75770.38
2023-05-12T14:40:33.230Z,75764.25
2023-05-12T14:43:01.053Z,75768.34
2023-05-12T14:45:31.591Z,75760.19
2023-05-12T14:47:59.449Z,75778.53
2023-05-12T14:50:28.532Z,75778.53
2023-05-12T14:52:56.327Z,75780.56
2023-05-12T14:55:24.524Z,75796.88
2023-05-12T14:57:52.396Z,75794.84
2023-05-12T15:02:50.425Z,75784.66
2023-05-12T15:05:18.541Z,75796.88
2023-05-12T15:07:46.437Z,75803.00
2023-05-12T15:10:14.185Z,75792.81
2023-05-12T15:12:41.978Z,75780.56
2023-05-12T15:15:11.647Z,75786.69
2023-05-12T15:17:39.722Z,75790.75
2023-05-12T15:20:10.146Z,75790.75
2023-05-12T15:22:37.920Z,75786.69
2023-05-12T15:25:06.588Z,75792.81
2023-05-12T15:27:34.781Z,75778.53
2023-05-12T15:30:02.641Z,75766.31
2023-05-12T15:32:30.441Z,75776.50
2023-05-12T15:34:58.528Z,75788.72
2023-05-12T15:37:28.025Z,75788.72
2023-05-12T15:39:55.771Z,75788.72
2023-05-12T15:42:30.051Z,75788.72
2023-05-12T15:45:00.772Z,75774.47
2023-05-12T15:47:28.567Z,75782.59
2023-05-12T15:49:56.463Z,75784.66
2023-05-12T15:52:24.844Z,75788.72
2023-05-12T15:54:54.071Z,75780.56
2023-05-12T15:57:21.881Z,75788.72
2023-05-12T15:59:50.784Z,75780.56
2023-05-12T16:02:19.502Z,75780.56
2023-05-12T16:04:47.505Z,75768.34
2023-05-12T16:07:15.242Z,75764.25
2023-05-12T16:09:43.133Z,75756.09
2023-05-12T16:12:12.968Z,75768.34
2023-05-12T16:14:40.701Z,75776.50
2023-05-12T16:17:08.809Z,75780.56
2023-05-12T16:19:36.753Z,75784.66
2023-05-12T16:22:04.582Z,75796.88
2023-05-12T16:24:32.435Z,75798.91
2023-05-12T16:27:00.269Z,75792.81
2023-05-12T16:29:29.411Z,75803.00
2023-05-12T16:31:57.247Z,75800.97
2023-05-12T16:34:26.021Z,75800.97
2023-05-12T16:36:53.809Z,75805.03
2023-05-12T16:39:21.604Z,75796.88
2023-05-12T16:41:49.336Z,75780.56
2023-05-12T16:44:17.079Z,75774.47
2023-05-12T16:46:46.206Z,75764.25
2023-05-12T16:49:13.965Z,75760.19
2023-05-12T16:51:41.882Z,75760.19
2023-05-12T16:54:10.059Z,75768.34
2023-05-12T16:56:37.786Z,75774.47
2023-05-12T16:59:06.401Z,75760.19
2023-05-12T17:01:35.985Z,75756.09
2023-05-12T17:04:05.256Z,75754.06
2023-05-12T17:06:33.229Z,75766.31
2023-05-12T17:09:01.462Z,75780.56
2023-05-12T17:11:29.284Z,75784.66
2023-05-12T17:13:56.998Z,75786.69
2023-05-12T17:16:24.829Z,75792.81
2023-05-12T17:21:24.541Z,75805.03
2023-05-12T17:23:52.888Z,75815.22
2023-05-12T17:26:20.982Z,75835.63
2023-05-12T17:28:48.768Z,75837.66
2023-05-12T17:31:16.665Z,75847.84
2023-05-12T17:33:44.426Z,75860.06
2023-05-12T17:36:13.317Z,75866.19
2023-05-12T17:38:43.473Z,75882.50
2023-05-12T17:41:11.474Z,75888.63
2023-05-12T17:43:39.253Z,75888.63
2023-05-12T17:46:07.769Z,75904.94
2023-05-12T17:48:38.757Z,75898.81
2023-05-12T17:51:07.385Z,75902.88
2023-05-12T17:53:35.633Z,75913.09
2023-05-12T17:56:05.009Z,75911.03
2023-05-12T17:58:32.794Z,75921.25
2023-05-12T18:01:00.693Z,75925.31
2023-05-12T18:03:28.507Z,75927.34
2023-05-12T18:05:56.655Z,75939.59
2023-05-12T18:08:24.451Z,75937.53
2023-05-12T18:10:52.261Z,75939.59
2023-05-12T18:13:21.475Z,75933.47
2023-05-12T18:15:50.156Z,75939.59
2023-05-12T18:18:17.931Z,75937.53
2023-05-12T18:20:45.877Z,75947.75
2023-05-12T18:23:13.588Z,75939.59
2023-05-12T18:25:42.832Z,75949.78
2023-05-12T18:28:10.685Z,75945.69
2023-05-12T18:30:40.093Z,75943.66
2023-05-12T18:33:07.998Z,75951.81
2023-05-12T18:35:36.050Z,75962.00
2023-05-12T18:38:04.013Z,75955.91
2023-05-12T18:40:31.759Z,75955.91
2023-05-12T18:42:59.633Z,75955.91
2023-05-12T18:45:27.433Z,75964.06
2023-05-12T18:47:56.632Z,75972.22
2023-05-12T18:50:24.465Z,75972.22
2023-05-12T18:52:52.226Z,75970.16
2023-05-12T18:55:20.164Z,75972.22
2023-05-12T18:57:48.301Z,75978.31
2023-05-12T19:00:16.629Z,75982.41
2023-05-12T19:02:47.705Z,75972.22
2023-05-12T19:05:17.165Z,75980.34
2023-05-12T19:07:44.978Z,75980.34
2023-05-12T19:10:12.777Z,75976.28
2023-05-12T19:12:40.549Z,75980.34
2023-05-12T19:15:09.549Z,75984.44
2023-05-12T19:17:37.483Z,75984.44
2023-05-12T19:20:06.514Z,75984.44
2023-05-12T19:22:36.503Z,75988.50
2023-05-12T19:25:06.197Z,75992.59
2023-05-12T19:27:35.245Z,75998.72
2023-05-12T19:30:05.054Z,76000.75
2023-05-12T19:32:33.041Z,75996.66
2023-05-12T19:35:01.277Z,76000.75
2023-05-12T19:37:29.859Z,76000.75
2023-05-12T19:39:59.283Z,76000.75
2023-05-12T19:42:27.753Z,75998.72
2023-05-12T19:44:55.586Z,76015.03
2023-05-12T19:47:25.205Z,76010.94
2023-05-12T19:49:54.475Z,76012.97
2023-05-12T19:52:24.534Z,76012.97
2023-05-12T19:54:52.344Z,76017.06
2023-05-12T19:57:22.361Z,76021.13
2023-05-12T19:59:50.585Z,76025.22
2023-05-12T20:02:18.509Z,76025.22
2023-05-12T20:04:46.410Z,76027.25
2023-05-12T20:07:14.213Z,76041.53
2023-05-12T20:09:42.019Z,76037.44
2023-05-12T20:12:10.503Z,76045.59
2023-05-12T20:14:39.611Z,76041.53
2023-05-12T20:17:08.120Z,76045.59
2023-05-12T20:19:36.229Z,76041.53
2023-05-12T20:22:04.152Z,76039.47
2023-05-12T20:24:32.038Z,76035.41
2023-05-12T20:26:59.779Z,76037.44
2023-05-12T20:29:27.986Z,76033.38
2023-05-12T20:31:57.516Z,76029.28
2023-05-12T20:34:25.306Z,76021.13
2023-05-12T20:36:53.479Z,76033.38
2023-05-12T20:39:21.260Z,76023.19
2023-05-12T20:41:49.017Z,76029.28
2023-05-12T20:44:16.793Z,76031.31
2023-05-12T20:46:45.382Z,76029.28
2023-05-12T20:49:14.494Z,76029.28
2023-05-12T20:51:42.252Z,76031.31
2023-05-12T20:54:10.091Z,76025.22
2023-05-12T20:56:37.899Z,76027.25
2023-05-12T20:59:05.671Z,76027.25
2023-05-12T21:01:33.587Z,76031.31
2023-05-12T21:04:01.700Z,76027.25
2023-05-12T21:06:30.831Z,76033.38
2023-05-12T21:08:58.561Z,76039.47
2023-05-12T21:11:26.947Z,76041.53
2023-05-12T21:13:54.761Z,76039.47
2023-05-12T21:16:22.563Z,76043.56
2023-05-12T21:18:50.454Z,76039.47
2023-05-12T21:21:18.326Z,76037.44
2023-05-12T21:23:47.397Z,76037.44
2023-05-12T21:26:15.159Z,76045.59
2023-05-12T21:28:43.036Z,76041.53
2023-05-12T21:31:10.793Z,76041.53
2023-05-12T21:33:38.660Z,76039.47
2023-05-12T21:36:07.427Z,76037.44
2023-05-12T21:38:35.201Z,76029.28
2023-05-12T21:41:04.378Z,76033.38
2023-05-12T21:43:32.107Z,76031.31
2023-05-12T21:46:02.964Z,76033.38
2023-05-12T21:48:30.975Z,76029.28
2023-05-12T21:50:59.947Z,76029.28
2023-05-12T21:53:28.150Z,76031.31
2023-05-12T21:55:55.940Z,76029.28
2023-05-12T21:58:25.070Z,76031.31
2023-05-12T22:00:53.004Z,76025.22
2023-05-12T22:03:21.895Z,76029.28
2023-05-12T22:05:50.041Z,76031.31
2023-05-12T22:08:18.532Z,76029.28
2023-05-12T22:10:46.810Z,76037.44
2023-05-12T22:13:14.632Z,76033.38
2023-05-12T22:15:43.738Z,76035.41
2023-05-12T22:18:11.591Z,76037.44
2023-05-12T22:20:39.828Z,76031.31
2023-05-12T22:23:07.649Z,76035.41
2023-05-12T22:25:35.642Z,76029.28
2023-05-12T22:28:04.450Z,76033.38
2023-05-12T22:30:33.059Z,76037.44
2023-05-12T22:33:02.274Z,76045.59
2023-05-12T22:35:30.048Z,76039.47
2023-05-12T22:37:57.800Z,76041.53
2023-05-12T22:40:27.095Z,76045.59
2023-05-12T22:42:54.830Z,76041.53
2023-05-12T22:45:22.580Z,76051.72
2023-05-12T22:47:50.440Z,76045.59
2023-05-12T22:50:20.125Z,76045.59
2023-05-12T22:52:48.033Z,76049.69
2023-05-12T22:55:15.856Z,76051.72
2023-05-12T22:57:46.009Z,76053.75
2023-05-12T23:00:14.763Z,76057.84
2023-05-12T23:02:42.570Z,76061.91
2023-05-12T23:05:11.164Z,76066.00
2023-05-12T23:07:40.272Z,76063.94
2023-05-12T23:10:09.071Z,76066.00
2023-05-12T23:12:36.823Z,76063.94
2023-05-12T23:15:05.138Z,76066.00
2023-05-12T23:17:32.933Z,76066.00
2023-05-12T23:20:00.758Z,76063.94
2023-05-12T23:22:28.588Z,76070.06
2023-05-12T23:24:58.329Z,76063.94
2023-05-12T23:27:26.269Z,76061.91
2023-05-12T23:29:54.329Z,76061.91
2023-05-12T23:32:22.449Z,76061.91
2023-05-12T23:34:50.436Z,76057.84
2023-05-12T23:37:19.303Z,76066.00
2023-05-12T23:39:47.092Z,76061.91
2023-05-12T23:42:17.141Z,76057.84
2023-05-12T23:44:44.919Z,76068.03
2023-05-12T23:47:12.724Z,76066.00
2023-05-12T23:49:40.519Z,76053.75
2023-05-12T23:52:08.441Z,76057.84
2023-05-12T23:54:36.215Z,76057.84
2023-05-12T23:57:04.664Z,76061.91
2023-05-12T23:59:33.754Z,76059.88
